sensor_id;sensor_type;location;lat;lon;timestamp;pressure;altitude;pressure_sealevel;temperature;humidity
37291;BME280;23175;-33.706;151.094;2023-06-26T00:00:19;99664.42;;;8.91;33.02
37291;BME280;23175;-33.706;151.094;2023-06-26T00:02:49;99661.86;;;9.43;32.78
37291;BME280;23175;-33.706;151.094;2023-06-26T00:05:18;99672.37;;;11.13;31.60
37291;BME280;23175;-33.706;151.094;2023-06-26T00:07:48;99661.08;;;11.07;30.22
37291;BME280;23175;-33.706;151.094;2023-06-26T00:10:18;99666.13;;;10.64;31.80
37291;BME280;23175;-33.706;151.094;2023-06-26T00:12:48;99669.54;;;9.06;32.07
37291;BME280;23175;-33.706;151.094;2023-06-26T00:15:19;99670.83;;;9.32;32.68
37291;BME280;23175;-33.706;151.094;2023-06-26T00:17:49;99667.31;;;9.39;31.24
37291;BME280;23175;-33.706;151.094;2023-06-26T00:20:19;99663.36;;;10.55;30.84
37291;BME280;23175;-33.706;151.094;2023-06-26T00:22:48;99656.99;;;9.34;31.72
37291;BME280;23175;-33.706;151.094;2023-06-26T00:25:18;99666.45;;;10.31;31.61
37291;BME280;23175;-33.706;151.094;2023-06-26T00:27:49;99645.06;;;9.61;30.52
37291;BME280;23175;-33.706;151.094;2023-06-26T00:30:19;99646.60;;;10.59;30.25
37291;BME280;23175;-33.706;151.094;2023-06-26T00:32:49;99647.34;;;9.01;31.11
37291;BME280;23175;-33.706;151.094;2023-06-26T00:35:19;99650.09;;;10.47;30.50
37291;BME280;23175;-33.706;151.094;2023-06-26T00:37:49;99650.08;;;10.17;29.35
37291;BME280;23175;-33.706;151.094;2023-06-26T00:40:19;99634.91;;;12.09;27.38
37291;BME280;23175;-33.706;151.094;2023-06-26T00:42:49;99634.73;;;10.36;27.78
37291;BME280;23175;-33.706;151.094;2023-06-26T00:45:19;99633.43;;;11.24;27.14
37291;BME280;23175;-33.706;151.094;2023-06-26T00:47:50;99615.22;;;9.45;27.95
37291;BME280;23175;-33.706;151.094;2023-06-26T00:50:20;99611.50;;;13.81;24.51
37291;BME280;23175;-33.706;151.094;2023-06-26T00:52:51;99611.05;;;11.28;26.34
37291;BME280;23175;-33.706;151.094;2023-06-26T00:55:21;99617.10;;;11.00;27.00
37291;BME280;23175;-33.706;151.094;2023-06-26T00:57:51;99605.80;;;11.20;26.04
37291;BME280;23175;-33.706;151.094;2023-06-26T01:00:21;99603.55;;;12.32;26.27
37291;BME280;23175;-33.706;151.094;2023-06-26T01:02:51;99595.63;;;12.47;26.12
37291;BME280;23175;-33.706;151.094;2023-06-26T01:05:21;99601.06;;;11.93;27.01
37291;BME280;23175;-33.706;151.094;2023-06-26T01:07:52;99604.91;;;10.81;28.63
37291;BME280;23175;-33.706;151.094;2023-06-26T01:10:23;99586.64;;;10.21;29.63
37291;BME280;23175;-33.706;151.094;2023-06-26T01:12:54;99585.96;;;9.99;30.02
37291;BME280;23175;-33.706;151.094;2023-06-26T01:15:23;99578.62;;;11.04;29.61
37291;BME280;23175;-33.706;151.094;2023-06-26T01:17:53;99574.39;;;11.00;30.19
37291;BME280;23175;-33.706;151.094;2023-06-26T01:20:24;99570.52;;;11.85;29.23
37291;BME280;23175;-33.706;151.094;2023-06-26T01:23:01;99564.70;;;11.38;29.87
37291;BME280;23175;-33.706;151.094;2023-06-26T01:25:39;99565.29;;;11.89;28.94
37291;BME280;23175;-33.706;151.094;2023-06-26T01:28:12;99566.82;;;11.49;29.08
37291;BME280;23175;-33.706;151.094;2023-06-26T01:30:44;99563.36;;;11.89;29.27
37291;BME280;23175;-33.706;151.094;2023-06-26T01:33:15;99557.85;;;10.64;29.73
37291;BME280;23175;-33.706;151.094;2023-06-26T01:35:45;99563.37;;;10.64;29.81
37291;BME280;23175;-33.706;151.094;2023-06-26T01:38:18;99552.49;;;10.72;29.97
37291;BME280;23175;-33.706;151.094;2023-06-26T01:40:49;99562.35;;;8.91;31.37
37291;BME280;23175;-33.706;151.094;2023-06-26T01:43:26;99544.22;;;10.53;31.20
37291;BME280;23175;-33.706;151.094;2023-06-26T01:46:01;99544.14;;;10.36;31.16
37291;BME280;23175;-33.706;151.094;2023-06-26T01:48:37;99542.87;;;11.00;31.08
37291;BME280;23175;-33.706;151.094;2023-06-26T01:51:09;99538.60;;;11.00;31.06
37291;BME280;23175;-33.706;151.094;2023-06-26T01:53:43;99534.54;;;12.15;30.18
37291;BME280;23175;-33.706;151.094;2023-06-26T01:56:15;99530.49;;;10.63;30.95
37291;BME280;23175;-33.706;151.094;2023-06-26T01:58:47;99529.86;;;10.36;30.36
37291;BME280;23175;-33.706;151.094;2023-06-26T02:01:17;99531.73;;;11.26;30.16
37291;BME280;23175;-33.706;151.094;2023-06-26T02:03:48;99519.93;;;10.14;30.76
37291;BME280;23175;-33.706;151.094;2023-06-26T02:06:17;99517.97;;;10.34;30.84
37291;BME280;23175;-33.706;151.094;2023-06-26T02:08:47;99515.32;;;11.18;30.00
37291;BME280;23175;-33.706;151.094;2023-06-26T02:11:17;99514.87;;;10.59;30.93
37291;BME280;23175;-33.706;151.094;2023-06-26T02:13:47;99523.32;;;10.87;30.97
37291;BME280;23175;-33.706;151.094;2023-06-26T02:16:17;99511.12;;;10.31;31.37
37291;BME280;23175;-33.706;151.094;2023-06-26T02:18:47;99508.20;;;11.11;31.58
37291;BME280;23175;-33.706;151.094;2023-06-26T02:21:16;99485.81;;;10.40;31.30
37291;BME280;23175;-33.706;151.094;2023-06-26T02:23:46;99487.36;;;10.23;31.35
37291;BME280;23175;-33.706;151.094;2023-06-26T02:26:16;99482.75;;;10.29;31.64
37291;BME280;23175;-33.706;151.094;2023-06-26T02:28:45;99480.32;;;11.76;30.10
37291;BME280;23175;-33.706;151.094;2023-06-26T02:31:15;99486.89;;;10.54;30.78
37291;BME280;23175;-33.706;151.094;2023-06-26T02:33:45;99472.69;;;10.50;31.33
37291;BME280;23175;-33.706;151.094;2023-06-26T02:36:15;99470.06;;;10.27;30.96
37291;BME280;23175;-33.706;151.094;2023-06-26T02:38:44;99464.76;;;10.54;31.62
37291;BME280;23175;-33.706;151.094;2023-06-26T02:41:14;99464.93;;;10.10;31.80
37291;BME280;23175;-33.706;151.094;2023-06-26T02:43:44;99461.45;;;10.75;31.37
37291;BME280;23175;-33.706;151.094;2023-06-26T02:46:14;99467.64;;;10.89;31.42
37291;BME280;23175;-33.706;151.094;2023-06-26T02:48:43;99462.77;;;10.49;31.59
37291;BME280;23175;-33.706;151.094;2023-06-26T02:51:13;99446.93;;;10.91;31.15
37291;BME280;23175;-33.706;151.094;2023-06-26T02:53:43;99461.79;;;10.69;30.69
37291;BME280;23175;-33.706;151.094;2023-06-26T02:56:13;99455.56;;;10.44;31.25
37291;BME280;23175;-33.706;151.094;2023-06-26T02:58:43;99465.95;;;10.55;30.68
37291;BME280;23175;-33.706;151.094;2023-06-26T03:01:13;99455.72;;;11.82;30.10
37291;BME280;23175;-33.706;151.094;2023-06-26T03:03:43;99455.47;;;11.63;30.35
37291;BME280;23175;-33.706;151.094;2023-06-26T03:06:13;99450.05;;;10.76;30.47
37291;BME280;23175;-33.706;151.094;2023-06-26T03:08:44;99454.22;;;11.16;30.23
37291;BME280;23175;-33.706;151.094;2023-06-26T03:11:14;99449.65;;;11.65;29.65
37291;BME280;23175;-33.706;151.094;2023-06-26T03:13:43;99437.37;;;11.77;29.67
37291;BME280;23175;-33.706;151.094;2023-06-26T03:16:13;99445.80;;;12.34;28.97
37291;BME280;23175;-33.706;151.094;2023-06-26T03:18:43;99443.36;;;10.83;30.39
37291;BME280;23175;-33.706;151.094;2023-06-26T03:21:13;99443.78;;;10.08;31.24
37291;BME280;23175;-33.706;151.094;2023-06-26T03:23:43;99453.81;;;11.20;30.35
37291;BME280;23175;-33.706;151.094;2023-06-26T03:26:13;99438.48;;;10.98;30.62
37291;BME280;23175;-33.706;151.094;2023-06-26T03:28:43;99458.03;;;10.75;32.06
37291;BME280;23175;-33.706;151.094;2023-06-26T03:31:13;99455.64;;;11.16;30.91
37291;BME280;23175;-33.706;151.094;2023-06-26T03:33:43;99444.81;;;10.88;31.54
37291;BME280;23175;-33.706;151.094;2023-06-26T03:36:12;99442.64;;;11.66;30.85
37291;BME280;23175;-33.706;151.094;2023-06-26T03:38:42;99442.84;;;10.70;31.03
37291;BME280;23175;-33.706;151.094;2023-06-26T03:41:13;99448.32;;;11.81;29.87
37291;BME280;23175;-33.706;151.094;2023-06-26T03:43:43;99454.48;;;10.95;31.35
37291;BME280;23175;-33.706;151.094;2023-06-26T03:46:12;99454.17;;;10.99;30.91
37291;BME280;23175;-33.706;151.094;2023-06-26T03:48:42;99460.46;;;10.58;31.45
37291;BME280;23175;-33.706;151.094;2023-06-26T03:51:13;99464.07;;;12.00;30.03
37291;BME280;23175;-33.706;151.094;2023-06-26T03:53:43;99470.87;;;11.70;29.84
37291;BME280;23175;-33.706;151.094;2023-06-26T03:56:14;99463.76;;;11.64;30.03
37291;BME280;23175;-33.706;151.094;2023-06-26T03:58:43;99471.80;;;10.74;30.71
37291;BME280;23175;-33.706;151.094;2023-06-26T04:01:13;99484.10;;;10.89;30.55
37291;BME280;23175;-33.706;151.094;2023-06-26T04:03:43;99470.19;;;11.84;29.90
37291;BME280;23175;-33.706;151.094;2023-06-26T04:06:14;99476.45;;;10.65;30.92
37291;BME280;23175;-33.706;151.094;2023-06-26T04:08:45;99475.34;;;11.11;30.45
37291;BME280;23175;-33.706;151.094;2023-06-26T04:11:15;99466.55;;;10.04;30.61
37291;BME280;23175;-33.706;151.094;2023-06-26T04:13:45;99467.65;;;10.74;31.11
37291;BME280;23175;-33.706;151.094;2023-06-26T04:16:15;99483.91;;;12.08;29.57
37291;BME280;23175;-33.706;151.094;2023-06-26T04:18:45;99497.50;;;10.36;30.30
37291;BME280;23175;-33.706;151.094;2023-06-26T04:21:15;99488.40;;;10.36;30.45
37291;BME280;23175;-33.706;151.094;2023-06-26T04:23:45;99490.29;;;10.49;30.58
37291;BME280;23175;-33.706;151.094;2023-06-26T04:26:15;99510.08;;;11.97;29.32
37291;BME280;23175;-33.706;151.094;2023-06-26T04:28:44;99494.41;;;12.17;29.50
37291;BME280;23175;-33.706;151.094;2023-06-26T04:31:14;99499.28;;;12.08;28.67
37291;BME280;23175;-33.706;151.094;2023-06-26T04:33:44;99497.35;;;11.28;29.26
37291;BME280;23175;-33.706;151.094;2023-06-26T04:36:14;99509.74;;;10.95;30.04
37291;BME280;23175;-33.706;151.094;2023-06-26T04:38:43;99509.13;;;11.53;29.20
37291;BME280;23175;-33.706;151.094;2023-06-26T04:41:13;99510.19;;;11.55;29.76
37291;BME280;23175;-33.706;151.094;2023-06-26T04:43:43;99515.68;;;10.72;30.57
37291;BME280;23175;-33.706;151.094;2023-06-26T04:46:13;99514.15;;;10.91;30.47
37291;BME280;23175;-33.706;151.094;2023-06-26T04:48:43;99518.35;;;10.82;30.45
37291;BME280;23175;-33.706;151.094;2023-06-26T04:51:13;99524.93;;;10.66;30.45
37291;BME280;23175;-33.706;151.094;2023-06-26T04:53:43;99524.56;;;11.42;29.63
37291;BME280;23175;-33.706;151.094;2023-06-26T04:56:12;99518.71;;;11.37;30.29
37291;BME280;23175;-33.706;151.094;2023-06-26T04:58:42;99519.29;;;10.84;29.78
37291;BME280;23175;-33.706;151.094;2023-06-26T05:01:13;99526.16;;;10.60;30.40
37291;BME280;23175;-33.706;151.094;2023-06-26T05:03:43;99518.99;;;10.92;30.05
37291;BME280;23175;-33.706;151.094;2023-06-26T05:06:13;99518.81;;;9.95;30.18
37291;BME280;23175;-33.706;151.094;2023-06-26T05:08:43;99528.86;;;11.37;29.67
37291;BME280;23175;-33.706;151.094;2023-06-26T05:11:13;99533.37;;;10.95;30.15
37291;BME280;23175;-33.706;151.094;2023-06-26T05:13:43;99531.26;;;10.93;30.08
37291;BME280;23175;-33.706;151.094;2023-06-26T05:16:14;99532.19;;;10.57;30.34
37291;BME280;23175;-33.706;151.094;2023-06-26T05:18:44;99542.80;;;10.75;30.33
37291;BME280;23175;-33.706;151.094;2023-06-26T05:21:14;99544.27;;;11.73;29.38
37291;BME280;23175;-33.706;151.094;2023-06-26T05:23:46;99554.92;;;9.87;30.31
37291;BME280;23175;-33.706;151.094;2023-06-26T05:26:17;99565.12;;;12.00;28.79
37291;BME280;23175;-33.706;151.094;2023-06-26T05:28:48;99557.32;;;10.20;29.79
37291;BME280;23175;-33.706;151.094;2023-06-26T05:31:18;99559.32;;;10.94;29.79
37291;BME280;23175;-33.706;151.094;2023-06-26T05:33:49;99571.30;;;9.92;29.59
37291;BME280;23175;-33.706;151.094;2023-06-26T05:36:20;99598.16;;;10.55;30.47
37291;BME280;23175;-33.706;151.094;2023-06-26T05:38:51;99584.12;;;9.62;29.99
37291;BME280;23175;-33.706;151.094;2023-06-26T05:41:22;99583.51;;;10.52;29.56
37291;BME280;23175;-33.706;151.094;2023-06-26T05:43:52;99582.45;;;10.08;29.91
37291;BME280;23175;-33.706;151.094;2023-06-26T05:46:22;99584.39;;;11.58;28.99
37291;BME280;23175;-33.706;151.094;2023-06-26T05:48:52;99583.74;;;10.21;30.26
37291;BME280;23175;-33.706;151.094;2023-06-26T05:51:23;99593.74;;;11.23;29.71
37291;BME280;23175;-33.706;151.094;2023-06-26T05:53:53;99591.50;;;10.77;29.83
37291;BME280;23175;-33.706;151.094;2023-06-26T05:56:24;99592.66;;;10.24;30.31
37291;BME280;23175;-33.706;151.094;2023-06-26T05:58:54;99602.37;;;9.97;30.23
37291;BME280;23175;-33.706;151.094;2023-06-26T06:01:25;99603.03;;;10.79;29.71
37291;BME280;23175;-33.706;151.094;2023-06-26T06:03:55;99605.97;;;10.18;30.56
37291;BME280;23175;-33.706;151.094;2023-06-26T06:06:25;99612.01;;;9.72;30.78
37291;BME280;23175;-33.706;151.094;2023-06-26T06:08:55;99613.44;;;10.68;30.07
37291;BME280;23175;-33.706;151.094;2023-06-26T06:11:25;99613.89;;;10.51;30.64
37291;BME280;23175;-33.706;151.094;2023-06-26T06:13:55;99597.76;;;9.39;31.02
37291;BME280;23175;-33.706;151.094;2023-06-26T06:16:24;99607.47;;;9.62;30.70
37291;BME280;23175;-33.706;151.094;2023-06-26T06:18:54;99592.00;;;9.97;30.70
37291;BME280;23175;-33.706;151.094;2023-06-26T06:21:25;99615.45;;;10.37;30.45
37291;BME280;23175;-33.706;151.094;2023-06-26T06:23:56;99612.30;;;9.53;30.88
37291;BME280;23175;-33.706;151.094;2023-06-26T06:26:26;99620.70;;;9.30;31.46
37291;BME280;23175;-33.706;151.094;2023-06-26T06:28:55;99616.30;;;10.23;30.33
37291;BME280;23175;-33.706;151.094;2023-06-26T06:31:25;99629.38;;;9.74;30.63
37291;BME280;23175;-33.706;151.094;2023-06-26T06:33:55;99637.16;;;10.40;30.08
37291;BME280;23175;-33.706;151.094;2023-06-26T06:36:25;99630.17;;;9.51;30.62
37291;BME280;23175;-33.706;151.094;2023-06-26T06:38:55;99625.06;;;9.96;30.47
37291;BME280;23175;-33.706;151.094;2023-06-26T06:41:24;99620.46;;;9.91;30.00
37291;BME280;23175;-33.706;151.094;2023-06-26T06:43:54;99637.40;;;11.50;28.72
37291;BME280;23175;-33.706;151.094;2023-06-26T06:46:24;99635.26;;;9.54;29.98
37291;BME280;23175;-33.706;151.094;2023-06-26T06:48:54;99627.71;;;9.88;29.88
37291;BME280;23175;-33.706;151.094;2023-06-26T06:51:25;99626.89;;;10.14;29.24
37291;BME280;23175;-33.706;151.094;2023-06-26T06:53:55;99647.27;;;10.53;29.11
37291;BME280;23175;-33.706;151.094;2023-06-26T06:56:25;99658.40;;;11.75;28.41
37291;BME280;23175;-33.706;151.094;2023-06-26T06:58:55;99640.88;;;10.30;29.45
37291;BME280;23175;-33.706;151.094;2023-06-26T07:01:25;99659.21;;;9.58;30.06
37291;BME280;23175;-33.706;151.094;2023-06-26T07:03:55;99650.65;;;10.17;29.19
37291;BME280;23175;-33.706;151.094;2023-06-26T07:06:25;99649.64;;;10.55;29.17
37291;BME280;23175;-33.706;151.094;2023-06-26T07:08:56;99656.62;;;11.14;28.05
37291;BME280;23175;-33.706;151.094;2023-06-26T07:11:26;99651.96;;;10.36;28.87
37291;BME280;23175;-33.706;151.094;2023-06-26T07:13:56;99647.96;;;12.97;26.92
37291;BME280;23175;-33.706;151.094;2023-06-26T07:16:28;99651.48;;;9.90;28.79
37291;BME280;23175;-33.706;151.094;2023-06-26T07:18:58;99668.53;;;9.23;29.38
37291;BME280;23175;-33.706;151.094;2023-06-26T07:21:28;99675.57;;;12.98;26.52
37291;BME280;23175;-33.706;151.094;2023-06-26T07:23:58;99667.34;;;11.32;28.42
37291;BME280;23175;-33.706;151.094;2023-06-26T07:26:29;99667.02;;;11.12;28.68
37291;BME280;23175;-33.706;151.094;2023-06-26T07:29:00;99673.97;;;9.76;29.88
37291;BME280;23175;-33.706;151.094;2023-06-26T07:31:30;99680.81;;;10.66;29.17
37291;BME280;23175;-33.706;151.094;2023-06-26T07:34:00;99671.63;;;8.91;30.27
37291;BME280;23175;-33.706;151.094;2023-06-26T07:36:30;99679.99;;;8.57;31.46
37291;BME280;23175;-33.706;151.094;2023-06-26T07:39:01;99675.89;;;8.86;31.78
37291;BME280;23175;-33.706;151.094;2023-06-26T07:41:31;99683.43;;;9.16;30.86
37291;BME280;23175;-33.706;151.094;2023-06-26T07:44:01;99694.04;;;9.77;30.47
37291;BME280;23175;-33.706;151.094;2023-06-26T07:46:32;99709.66;;;9.99;30.20
37291;BME280;23175;-33.706;151.094;2023-06-26T07:49:02;99706.79;;;8.73;31.68
37291;BME280;23175;-33.706;151.094;2023-06-26T07:51:33;99707.89;;;8.18;32.68
37291;BME280;23175;-33.706;151.094;2023-06-26T07:54:03;99702.85;;;9.05;31.40
37291;BME280;23175;-33.706;151.094;2023-06-26T07:56:34;99706.81;;;9.37;31.48
37291;BME280;23175;-33.706;151.094;2023-06-26T07:59:06;99712.75;;;9.14;31.63
37291;BME280;23175;-33.706;151.094;2023-06-26T08:01:36;99707.06;;;9.91;31.43
37291;BME280;23175;-33.706;151.094;2023-06-26T08:04:06;99707.77;;;9.47;31.10
37291;BME280;23175;-33.706;151.094;2023-06-26T08:06:36;99710.23;;;9.62;31.01
37291;BME280;23175;-33.706;151.094;2023-06-26T08:09:06;99704.12;;;9.62;31.15
37291;BME280;23175;-33.706;151.094;2023-06-26T08:11:36;99735.91;;;9.39;31.76
37291;BME280;23175;-33.706;151.094;2023-06-26T08:14:06;99729.34;;;8.13;33.26
37291;BME280;23175;-33.706;151.094;2023-06-26T08:16:36;99734.08;;;8.44;33.04
37291;BME280;23175;-33.706;151.094;2023-06-26T08:19:08;99732.08;;;8.82;32.92
37291;BME280;23175;-33.706;151.094;2023-06-26T08:21:38;99737.70;;;8.68;33.46
37291;BME280;23175;-33.706;151.094;2023-06-26T08:24:09;99742.20;;;9.88;32.08
37291;BME280;23175;-33.706;151.094;2023-06-26T08:26:39;99735.03;;;10.12;32.27
37291;BME280;23175;-33.706;151.094;2023-06-26T08:29:11;99736.12;;;9.52;32.24
37291;BME280;23175;-33.706;151.094;2023-06-26T08:31:43;99727.17;;;8.75;33.04
37291;BME280;23175;-33.706;151.094;2023-06-26T08:34:13;99723.80;;;7.56;34.93
37291;BME280;23175;-33.706;151.094;2023-06-26T08:36:43;99722.63;;;9.10;32.59
37291;BME280;23175;-33.706;151.094;2023-06-26T08:39:12;99724.71;;;8.45;33.13
37291;BME280;23175;-33.706;151.094;2023-06-26T08:41:43;99727.62;;;10.66;31.06
37291;BME280;23175;-33.706;151.094;2023-06-26T08:44:14;99738.04;;;8.39;33.55
37291;BME280;23175;-33.706;151.094;2023-06-26T08:46:44;99749.64;;;9.47;32.73
37291;BME280;23175;-33.706;151.094;2023-06-26T08:49:20;99758.34;;;9.03;33.25
37291;BME280;23175;-33.706;151.094;2023-06-26T08:51:55;99745.33;;;7.84;33.78
37291;BME280;23175;-33.706;151.094;2023-06-26T08:54:31;99740.97;;;9.97;31.96
37291;BME280;23175;-33.706;151.094;2023-06-26T08:57:05;99748.89;;;9.53;32.81
37291;BME280;23175;-33.706;151.094;2023-06-26T08:59:36;99755.83;;;9.75;32.15
37291;BME280;23175;-33.706;151.094;2023-06-26T09:02:08;99772.56;;;9.87;32.27
37291;BME280;23175;-33.706;151.094;2023-06-26T09:04:42;99793.29;;;8.54;33.91
37291;BME280;23175;-33.706;151.094;2023-06-26T09:07:12;99780.86;;;8.80;33.86
37291;BME280;23175;-33.706;151.094;2023-06-26T09:09:42;99779.64;;;8.85;33.67
37291;BME280;23175;-33.706;151.094;2023-06-26T09:12:12;99776.51;;;9.43;32.98
37291;BME280;23175;-33.706;151.094;2023-06-26T09:14:43;99771.16;;;8.37;33.56
37291;BME280;23175;-33.706;151.094;2023-06-26T09:17:15;99774.62;;;10.05;32.01
37291;BME280;23175;-33.706;151.094;2023-06-26T09:19:47;99777.66;;;7.31;35.28
37291;BME280;23175;-33.706;151.094;2023-06-26T09:22:20;99793.49;;;8.89;32.90
37291;BME280;23175;-33.706;151.094;2023-06-26T09:24:50;99804.36;;;9.22;31.59
37291;BME280;23175;-33.706;151.094;2023-06-26T09:27:22;99818.64;;;8.73;32.85
37291;BME280;23175;-33.706;151.094;2023-06-26T09:29:53;99813.75;;;8.42;33.15
37291;BME280;23175;-33.706;151.094;2023-06-26T09:32:26;99818.93;;;9.16;32.82
37291;BME280;23175;-33.706;151.094;2023-06-26T09:34:57;99831.15;;;9.46;31.82
37291;BME280;23175;-33.706;151.094;2023-06-26T09:37:28;99830.68;;;10.69;31.16
37291;BME280;23175;-33.706;151.094;2023-06-26T09:39:58;99832.38;;;7.80;33.61
37291;BME280;23175;-33.706;151.094;2023-06-26T09:42:29;99830.80;;;8.02;33.73
37291;BME280;23175;-33.706;151.094;2023-06-26T09:44:59;99850.84;;;9.90;31.78
37291;BME280;23175;-33.706;151.094;2023-06-26T09:47:32;99845.04;;;10.59;31.08
37291;BME280;23175;-33.706;151.094;2023-06-26T09:50:08;99847.06;;;10.18;31.70
37291;BME280;23175;-33.706;151.094;2023-06-26T09:52:52;99855.62;;;8.82;32.32
37291;BME280;23175;-33.706;151.094;2023-06-26T09:55:22;99861.26;;;10.24;31.90
37291;BME280;23175;-33.706;151.094;2023-06-26T09:57:54;99866.28;;;10.99;30.07
37291;BME280;23175;-33.706;151.094;2023-06-26T10:00:27;99872.27;;;10.12;31.18
37291;BME280;23175;-33.706;151.094;2023-06-26T10:02:58;99868.37;;;11.48;30.33
37291;BME280;23175;-33.706;151.094;2023-06-26T10:05:29;99855.64;;;10.40;31.40
37291;BME280;23175;-33.706;151.094;2023-06-26T10:07:59;99842.86;;;9.77;31.36
37291;BME280;23175;-33.706;151.094;2023-06-26T10:10:31;99847.44;;;10.51;31.51
37291;BME280;23175;-33.706;151.094;2023-06-26T10:13:08;99852.78;;;9.33;31.64
37291;BME280;23175;-33.706;151.094;2023-06-26T10:15:44;99860.53;;;9.64;32.07
37291;BME280;23175;-33.706;151.094;2023-06-26T10:18:16;99856.58;;;11.62;30.42
37291;BME280;23175;-33.706;151.094;2023-06-26T10:20:48;99857.57;;;11.85;29.76
37291;BME280;23175;-33.706;151.094;2023-06-26T10:23:21;99855.65;;;13.18;28.73
37291;BME280;23175;-33.706;151.094;2023-06-26T10:25:54;99861.45;;;12.84;28.46
37291;BME280;23175;-33.706;151.094;2023-06-26T10:28:29;99862.00;;;11.77;29.62
37291;BME280;23175;-33.706;151.094;2023-06-26T10:31:03;99857.29;;;12.18;29.17
37291;BME280;23175;-33.706;151.094;2023-06-26T10:33:34;99871.16;;;10.16;31.40
37291;BME280;23175;-33.706;151.094;2023-06-26T10:36:18;99884.22;;;10.15;31.15
37291;BME280;23175;-33.706;151.094;2023-06-26T10:38:52;99887.47;;;11.43;29.68
37291;BME280;23175;-33.706;151.094;2023-06-26T10:41:24;99886.76;;;12.09;29.70
37291;BME280;23175;-33.706;151.094;2023-06-26T10:44:08;99891.59;;;10.58;31.61
37291;BME280;23175;-33.706;151.094;2023-06-26T10:47:11;99886.70;;;12.44;29.95
37291;BME280;23175;-33.706;151.094;2023-06-26T10:49:48;99887.36;;;11.51;30.90
37291;BME280;23175;-33.706;151.094;2023-06-26T10:52:18;99887.04;;;11.34;32.32
37291;BME280;23175;-33.706;151.094;2023-06-26T10:54:48;99877.37;;;7.87;34.57
37291;BME280;23175;-33.706;151.094;2023-06-26T10:57:25;99879.76;;;9.29;33.87
37291;BME280;23175;-33.706;151.094;2023-06-26T11:00:13;99883.41;;;7.11;35.99
37291;BME280;23175;-33.706;151.094;2023-06-26T11:02:51;99888.33;;;10.02;33.84
37291;BME280;23175;-33.706;151.094;2023-06-26T11:05:32;99899.39;;;8.27;34.88
37291;BME280;23175;-33.706;151.094;2023-06-26T11:08:08;99893.19;;;8.52;35.32
37291;BME280;23175;-33.706;151.094;2023-06-26T11:10:59;99902.34;;;9.12;35.24
37291;BME280;23175;-33.706;151.094;2023-06-26T11:13:29;99894.20;;;7.81;36.47
37291;BME280;23175;-33.706;151.094;2023-06-26T11:16:00;99907.78;;;10.00;34.31
37291;BME280;23175;-33.706;151.094;2023-06-26T11:18:32;99913.63;;;9.49;34.82
37291;BME280;23175;-33.706;151.094;2023-06-26T11:21:08;99915.02;;;10.15;33.90
37291;BME280;23175;-33.706;151.094;2023-06-26T11:23:40;99922.97;;;12.52;31.07
37291;BME280;23175;-33.706;151.094;2023-06-26T11:26:19;99937.91;;;10.55;32.69
37291;BME280;23175;-33.706;151.094;2023-06-26T11:28:54;99952.90;;;10.25;32.69
37291;BME280;23175;-33.706;151.094;2023-06-26T11:31:30;99958.08;;;12.80;29.86
37291;BME280;23175;-33.706;151.094;2023-06-26T11:34:03;99959.60;;;11.76;31.73
37291;BME280;23175;-33.706;151.094;2023-06-26T11:36:34;99959.73;;;13.17;30.46
37291;BME280;23175;-33.706;151.094;2023-06-26T11:39:07;99959.71;;;13.03;30.35
37291;BME280;23175;-33.706;151.094;2023-06-26T11:41:39;99972.35;;;13.54;29.70
37291;BME280;23175;-33.706;151.094;2023-06-26T11:44:11;99972.23;;;13.14;30.15
37291;BME280;23175;-33.706;151.094;2023-06-26T11:46:44;99965.89;;;11.35;32.24
37291;BME280;23175;-33.706;151.094;2023-06-26T11:49:17;99964.25;;;9.89;34.87
37291;BME280;23175;-33.706;151.094;2023-06-26T11:51:49;99952.40;;;12.38;30.79
37291;BME280;23175;-33.706;151.094;2023-06-26T11:54:26;99944.47;;;12.78;30.68
37291;BME280;23175;-33.706;151.094;2023-06-26T11:56:57;99947.59;;;12.79;30.94
37291;BME280;23175;-33.706;151.094;2023-06-26T11:59:35;99959.29;;;11.09;33.17
37291;BME280;23175;-33.706;151.094;2023-06-26T12:02:10;99972.13;;;11.19;32.87
37291;BME280;23175;-33.706;151.094;2023-06-26T12:04:43;99970.25;;;11.51;31.70
37291;BME280;23175;-33.706;151.094;2023-06-26T12:07:14;99981.01;;;12.28;31.77
37291;BME280;23175;-33.706;151.094;2023-06-26T12:09:46;99991.79;;;13.38;30.84
37291;BME280;23175;-33.706;151.094;2023-06-26T12:12:19;100002.82;;;13.36;30.67
37291;BME280;23175;-33.706;151.094;2023-06-26T12:14:52;99995.71;;;12.84;30.87
37291;BME280;23175;-33.706;151.094;2023-06-26T12:17:26;99995.67;;;13.08;31.45
37291;BME280;23175;-33.706;151.094;2023-06-26T12:19:58;100005.47;;;12.45;31.47
37291;BME280;23175;-33.706;151.094;2023-06-26T12:22:35;100014.23;;;10.96;33.02
37291;BME280;23175;-33.706;151.094;2023-06-26T12:25:09;100015.26;;;13.22;31.37
37291;BME280;23175;-33.706;151.094;2023-06-26T12:27:44;100020.86;;;13.73;31.01
37291;BME280;23175;-33.706;151.094;2023-06-26T12:30:14;100021.18;;;13.78;30.89
37291;BME280;23175;-33.706;151.094;2023-06-26T12:32:49;100022.18;;;13.64;31.42
37291;BME280;23175;-33.706;151.094;2023-06-26T12:35:19;100023.23;;;13.10;30.51
37291;BME280;23175;-33.706;151.094;2023-06-26T12:37:48;100024.64;;;12.52;31.07
37291;BME280;23175;-33.706;151.094;2023-06-26T12:40:22;100025.63;;;13.63;31.07
37291;BME280;23175;-33.706;151.094;2023-06-26T12:42:57;100033.37;;;12.62;31.53
37291;BME280;23175;-33.706;151.094;2023-06-26T12:45:27;100031.85;;;11.41;34.12
37291;BME280;23175;-33.706;151.094;2023-06-26T12:48:08;100023.25;;;7.22;38.38
37291;BME280;23175;-33.706;151.094;2023-06-26T12:50:44;100021.79;;;8.44;38.35
37291;BME280;23175;-33.706;151.094;2023-06-26T12:53:16;100019.07;;;8.48;37.32